Abeille Honfleur 19 — FV6095 — position and weather

sailwx.info

Track history (hours):
 
Tides and Currents Weather Stations Pressure Air Temp Water Temp Dewpoint Dewpoint Depression Visibility Wind Speed Wind Dir Waves Ship Positions

Abeille Honfleur 19

Last reported at 2016-May-27 03:24 UTC. Time now 2016-May-27 04:27 UTC.
Position N 47°16' W 002°12'.

Length 30 m.

Type: Tug. MMSI: 227005280.

Date/timePositionNaut miles runAvg speedWind from/ knotsBaromVisibWave heightAir tempDewpointWater temp
2016-May-27 03:24N 47°16' W 002°12'0 0.0
2016-May-27 02:26N 47°16' W 002°12'0 0.0
2016-May-27 00:32N 47°16' W 002°12'0 0.0
2016-May-26 23:16N 47°16' W 002°12'0 0.0
2016-May-26 22:21N 47°16' W 002°12'0 0.0
2016-May-26 21:18N 47°16' W 002°12'0 0.0
2016-May-26 20:32N 47°16' W 002°12'0 0.0
2016-May-26 18:26N 47°16' W 002°12'0 0.0
2016-May-26 17:17N 47°16' W 002°12'0 0.0
2016-May-26 15:29N 47°16' W 002°12'0 0.0
2016-May-26 12:23N 47°16' W 002°12'0 0.0
2016-May-26 10:26N 47°16' W 002°12'0 0.0
2016-May-26 09:32N 47°16' W 002°12'0 0.0
2016-May-26 08:23N 47°16' W 002°12'0 0.0
2016-May-26 07:29N 47°16' W 002°12'3 2.9
2016-May-26 06:31N 47°18' W 002°09'0 0.0
2016-May-26 05:31N 47°18' W 002°09'0 0.0
2016-May-26 04:31N 47°18' W 002°09'0 0.0
2016-May-26 03:31N 47°18' W 002°09'0 0.0
2016-May-26 02:31N 47°18' W 002°09'0 0.0
2016-May-26 01:25N 47°18' W 002°09'0 0.0
2016-May-26 00:31N 47°18' W 002°09'0 0.0
2016-May-25 23:31N 47°18' W 002°09'0 0.0
2016-May-25 22:31N 47°18' W 002°09'0 0.0
2016-May-25 21:31N 47°18' W 002°09'0 0.0
2016-May-25 20:28N 47°18' W 002°09'0 0.0
2016-May-25 19:31N 47°18' W 002°09'0 0.0
2016-May-25 18:25N 47°18' W 002°09'0 0.0
2016-May-25 17:10N 47°18' W 002°09'0 0.0
2016-May-25 16:16N 47°18' W 002°09'0 0.0
2016-May-25 14:31N 47°18' W 002°09'0 0.0
2016-May-25 13:33N 47°18' W 002°09'0 0.0
2016-May-25 12:16N 47°18' W 002°09'0 0.0
2016-May-25 11:28N 47°18' W 002°09'0 0.0
2016-May-25 10:28N 47°18' W 002°09'0 0.0
2016-May-25 09:25N 47°18' W 002°09'0 0.0
2016-May-25 08:25N 47°18' W 002°09'0 0.1
2016-May-25 07:33N 47°18' W 002°09'3 2.5
2016-May-25 06:26N 47°16' W 002°12'0 0.0
2016-May-25 05:26N 47°16' W 002°12'0 0.0
2016-May-25 04:29N 47°16' W 002°12'0 0.0
2016-May-25 03:29N 47°16' W 002°12'0 0.0
2016-May-25 02:29N 47°16' W 002°12'0 0.0
2016-May-25 01:23N 47°16' W 002°12'0 0.0
2016-May-25 00:29N 47°16' W 002°12'0 0.0
2016-May-24 23:11N 47°16' W 002°12'0 0.0
2016-May-24 22:29N 47°16' W 002°12'0 0.0
2016-May-24 21:23N 47°16' W 002°12'0 0.0
2016-May-24 20:27N 47°16' W 002°12'910.2
2016-May-24 19:33N 47°17' W 001°59'1111.1
2016-May-24 18:33N 47°12' W 001°44'6 6.0
2016-May-24 17:33N 47°12' W 001°35'1 1.3
2016-May-24 16:32N 47°12' W 001°37'0 0.5
2016-May-24 15:33N 47°12' W 001°38'1 0.7
2016-May-24 14:32N 47°12' W 001°37'0 0.0
2016-May-24 13:29N 47°12' W 001°37'7 7.1
2016-May-24 12:33N 47°12' W 001°46'7 7.2
2016-May-24 11:34N 47°17' W 001°55'6 6.2
2016-May-24 10:33N 47°18' W 002°04'6 2.7
2016-May-24 08:18N 47°16' W 002°12'3 3.4
2016-May-24 07:32N 47°18' W 002°09'3 2.6
2016-May-24 06:33N 47°16' W 002°12'5 4.6
2016-May-24 05:33N 47°18' W 002°06'0 0.1
2016-May-24 04:33N 47°18' W 002°06'5 4.1
2016-May-24 03:27N 47°16' W 002°12'0 0.0
2016-May-24 02:24N 47°16' W 002°12'0 0.0
2016-May-24 01:30N 47°16' W 002°12'0 0.0
2016-May-24 00:33N 47°16' W 002°12'0 0.0
2016-May-23 23:33N 47°16' W 002°12'0 0.0
2016-May-23 22:33N 47°16' W 002°12'0 0.0
2016-May-23 21:30N 47°16' W 002°12'0 0.0
2016-May-23 20:30N 47°16' W 002°12'0 0.0
2016-May-23 03:18N 47°16' W 002°12'0 0.0
2016-May-23 02:21N 47°16' W 002°12'0 0.0
2016-May-23 01:30N 47°16' W 002°12'0 0.0
2016-May-22 23:28N 47°16' W 002°12'5 5.1
2016-May-22 22:33N 47°18' W 002°06'0 0.0
2016-May-22 21:30N 47°18' W 002°06'0 0.0
2016-May-22 20:33N 47°18' W 002°06'0 0.0
2016-May-22 19:33N 47°18' W 002°06'0 0.0
2016-May-22 18:33N 47°18' W 002°06'0 0.0
2016-May-22 17:33N 47°18' W 002°06'0 0.0
2016-May-22 16:26N 47°18' W 002°06'2 2.1
2016-May-22 15:33N 47°18' W 002°09'3 0.3
2016-May-22 06:30N 47°16' W 002°12'0 0.0
2016-May-22 01:24N 47°16' W 002°12'0 0.0
2016-May-22 00:30N 47°16' W 002°12'0 0.0
2016-May-21 14:12N 47°16' W 002°12'0 0.0
2016-May-21 13:27N 47°16' W 002°12'0 0.0
2016-May-21 12:30N 47°16' W 002°12'0 0.0
2016-May-21 11:30N 47°16' W 002°12'0 0.0
2016-May-21 07:33N 47°16' W 002°12'3 2.8
2016-May-21 06:32N 47°18' W 002°09'0 0.0
2016-May-21 05:32N 47°18' W 002°09'0 0.0
2016-May-21 04:32N 47°18' W 002°09'0 0.0
2016-May-21 03:32N 47°18' W 002°09'0 0.0
2016-May-21 02:29N 47°18' W 002°09'0 0.0
2016-May-21 01:32N 47°18' W 002°09'0 0.0
2016-May-21 00:32N 47°18' W 002°09'0 0.0
2016-May-20 23:29N 47°18' W 002°09'0 0.0
2016-May-20 22:32N 47°18' W 002°09'0 0.0
2016-May-20 21:32N 47°18' W 002°09'0 0.0
2016-May-20 20:32N 47°18' W 002°09'0 0.0
2016-May-20 19:32N 47°18' W 002°09'0 0.0
2016-May-20 18:32N 47°18' W 002°09'0 0.0
2016-May-20 17:32N 47°18' W 002°09'0 0.0
2016-May-20 16:32N 47°18' W 002°09'0 0.0
2016-May-20 15:29N 47°18' W 002°09'0 0.0
2016-May-20 14:32N 47°18' W 002°09'0 0.0
2016-May-20 13:32N 47°18' W 002°09'0 0.0
2016-May-20 12:32N 47°18' W 002°09'0 0.0
2016-May-20 11:29N 47°18' W 002°09'0 0.0
2016-May-20 10:32N 47°18' W 002°09'0 0.0
2016-May-20 09:32N 47°18' W 002°09'2 1.6
2016-May-20 08:33N 47°17' W 002°11'1 0.1
2016-May-19 23:20N 47°16' W 002°12'0 0.0
2016-May-19 22:32N 47°16' W 002°12'0 0.0
2016-May-19 13:32N 47°16' W 002°12'  
2016-May-17 07:25N 47°16' W 002°12'0 0.0
2016-May-17 06:28N 47°16' W 002°12'0 0.0
2016-May-17 05:25N 47°16' W 002°12'0 0.0
2016-May-17 04:28N 47°16' W 002°12'0 0.0
2016-May-17 03:25N 47°16' W 002°12'  
Track history (hours):
 
Tides and Currents Weather Stations Pressure Air Temp Water Temp Dewpoint Dewpoint Depression Visibility Wind Speed Wind Dir Waves Ship Positions

Abeille Honfleur 19

Last reported at 2016-May-27 03:24 UTC. Time now 2016-May-27 04:27 UTC.
Position N 47°16' W 002°12'.

Length 30 m.

Type: Tug. MMSI: 227005280.

Date/timePositionNaut miles runAvg speedWind from/ knotsBaromVisibWave heightAir tempDewpointWater temp
2016-May-27 03:24N 47°16' W 002°12'0 0.0
2016-May-27 02:26N 47°16' W 002°12'0 0.0
2016-May-27 00:32N 47°16' W 002°12'0 0.0
2016-May-26 23:16N 47°16' W 002°12'0 0.0
2016-May-26 22:21N 47°16' W 002°12'0 0.0
2016-May-26 21:18N 47°16' W 002°12'0 0.0
2016-May-26 20:32N 47°16' W 002°12'0 0.0
2016-May-26 18:26N 47°16' W 002°12'0 0.0
2016-May-26 17:17N 47°16' W 002°12'0 0.0
2016-May-26 15:29N 47°16' W 002°12'0 0.0
2016-May-26 12:23N 47°16' W 002°12'0 0.0
2016-May-26 10:26N 47°16' W 002°12'0 0.0
2016-May-26 09:32N 47°16' W 002°12'0 0.0
2016-May-26 08:23N 47°16' W 002°12'0 0.0
2016-May-26 07:29N 47°16' W 002°12'3 2.9
2016-May-26 06:31N 47°18' W 002°09'0 0.0
2016-May-26 05:31N 47°18' W 002°09'0 0.0
2016-May-26 04:31N 47°18' W 002°09'0 0.0
2016-May-26 03:31N 47°18' W 002°09'0 0.0
2016-May-26 02:31N 47°18' W 002°09'0 0.0
2016-May-26 01:25N 47°18' W 002°09'0 0.0
2016-May-26 00:31N 47°18' W 002°09'0 0.0
2016-May-25 23:31N 47°18' W 002°09'0 0.0
2016-May-25 22:31N 47°18' W 002°09'0 0.0
2016-May-25 21:31N 47°18' W 002°09'0 0.0
2016-May-25 20:28N 47°18' W 002°09'0 0.0
2016-May-25 19:31N 47°18' W 002°09'0 0.0
2016-May-25 18:25N 47°18' W 002°09'0 0.0
2016-May-25 17:10N 47°18' W 002°09'0 0.0
2016-May-25 16:16N 47°18' W 002°09'0 0.0
2016-May-25 14:31N 47°18' W 002°09'0 0.0
2016-May-25 13:33N 47°18' W 002°09'0 0.0
2016-May-25 12:16N 47°18' W 002°09'0 0.0
2016-May-25 11:28N 47°18' W 002°09'0 0.0
2016-May-25 10:28N 47°18' W 002°09'0 0.0
2016-May-25 09:25N 47°18' W 002°09'0 0.0
2016-May-25 08:25N 47°18' W 002°09'0 0.1
2016-May-25 07:33N 47°18' W 002°09'3 2.5
2016-May-25 06:26N 47°16' W 002°12'0 0.0
2016-May-25 05:26N 47°16' W 002°12'0 0.0
2016-May-25 04:29N 47°16' W 002°12'0 0.0
2016-May-25 03:29N 47°16' W 002°12'0 0.0
2016-May-25 02:29N 47°16' W 002°12'0 0.0
2016-May-25 01:23N 47°16' W 002°12'0 0.0
2016-May-25 00:29N 47°16' W 002°12'0 0.0
2016-May-24 23:11N 47°16' W 002°12'0 0.0
2016-May-24 22:29N 47°16' W 002°12'0 0.0
2016-May-24 21:23N 47°16' W 002°12'0 0.0
2016-May-24 20:27N 47°16' W 002°12'910.2
2016-May-24 19:33N 47°17' W 001°59'1111.1
2016-May-24 18:33N 47°12' W 001°44'6 6.0
2016-May-24 17:33N 47°12' W 001°35'1 1.3
2016-May-24 16:32N 47°12' W 001°37'0 0.5
2016-May-24 15:33N 47°12' W 001°38'1 0.7
2016-May-24 14:32N 47°12' W 001°37'0 0.0
2016-May-24 13:29N 47°12' W 001°37'7 7.1
2016-May-24 12:33N 47°12' W 001°46'7 7.2
2016-May-24 11:34N 47°17' W 001°55'6 6.2
2016-May-24 10:33N 47°18' W 002°04'6 2.7
2016-May-24 08:18N 47°16' W 002°12'3 3.4
2016-May-24 07:32N 47°18' W 002°09'3 2.6
2016-May-24 06:33N 47°16' W 002°12'5 4.6
2016-May-24 05:33N 47°18' W 002°06'0 0.1
2016-May-24 04:33N 47°18' W 002°06'5 4.1
2016-May-24 03:27N 47°16' W 002°12'0 0.0
2016-May-24 02:24N 47°16' W 002°12'0 0.0
2016-May-24 01:30N 47°16' W 002°12'0 0.0
2016-May-24 00:33N 47°16' W 002°12'0 0.0
2016-May-23 23:33N 47°16' W 002°12'0 0.0
2016-May-23 22:33N 47°16' W 002°12'0 0.0
2016-May-23 21:30N 47°16' W 002°12'0 0.0
2016-May-23 20:30N 47°16' W 002°12'0 0.0
2016-May-23 03:18N 47°16' W 002°12'0 0.0
2016-May-23 02:21N 47°16' W 002°12'0 0.0
2016-May-23 01:30N 47°16' W 002°12'0 0.0
2016-May-22 23:28N 47°16' W 002°12'5 5.1
2016-May-22 22:33N 47°18' W 002°06'0 0.0
2016-May-22 21:30N 47°18' W 002°06'0 0.0
2016-May-22 20:33N 47°18' W 002°06'0 0.0
2016-May-22 19:33N 47°18' W 002°06'0 0.0
2016-May-22 18:33N 47°18' W 002°06'0 0.0
2016-May-22 17:33N 47°18' W 002°06'0 0.0
2016-May-22 16:26N 47°18' W 002°06'2 2.1
2016-May-22 15:33N 47°18' W 002°09'3 0.3
2016-May-22 06:30N 47°16' W 002°12'0 0.0
2016-May-22 01:24N 47°16' W 002°12'0 0.0
2016-May-22 00:30N 47°16' W 002°12'0 0.0
2016-May-21 14:12N 47°16' W 002°12'0 0.0
2016-May-21 13:27N 47°16' W 002°12'0 0.0
2016-May-21 12:30N 47°16' W 002°12'0 0.0
2016-May-21 11:30N 47°16' W 002°12'0 0.0
2016-May-21 07:33N 47°16' W 002°12'3 2.8
2016-May-21 06:32N 47°18' W 002°09'0 0.0
2016-May-21 05:32N 47°18' W 002°09'0 0.0
2016-May-21 04:32N 47°18' W 002°09'0 0.0
2016-May-21 03:32N 47°18' W 002°09'0 0.0
2016-May-21 02:29N 47°18' W 002°09'0 0.0
2016-May-21 01:32N 47°18' W 002°09'0 0.0
2016-May-21 00:32N 47°18' W 002°09'0 0.0
2016-May-20 23:29N 47°18' W 002°09'0 0.0
2016-May-20 22:32N 47°18' W 002°09'0 0.0
2016-May-20 21:32N 47°18' W 002°09'0 0.0
2016-May-20 20:32N 47°18' W 002°09'0 0.0
2016-May-20 19:32N 47°18' W 002°09'0 0.0
2016-May-20 18:32N 47°18' W 002°09'0 0.0
2016-May-20 17:32N 47°18' W 002°09'0 0.0
2016-May-20 16:32N 47°18' W 002°09'0 0.0
2016-May-20 15:29N 47°18' W 002°09'0 0.0
2016-May-20 14:32N 47°18' W 002°09'0 0.0
2016-May-20 13:32N 47°18' W 002°09'0 0.0
2016-May-20 12:32N 47°18' W 002°09'0 0.0
2016-May-20 11:29N 47°18' W 002°09'0 0.0
2016-May-20 10:32N 47°18' W 002°09'0 0.0
2016-May-20 09:32N 47°18' W 002°09'2 1.6
2016-May-20 08:33N 47°17' W 002°11'1 0.1
2016-May-19 23:20N 47°16' W 002°12'0 0.0
2016-May-19 22:32N 47°16' W 002°12'0 0.0
2016-May-19 13:32N 47°16' W 002°12'  
2016-May-17 07:25N 47°16' W 002°12'0 0.0
2016-May-17 06:28N 47°16' W 002°12'0 0.0
2016-May-17 05:25N 47°16' W 002°12'0 0.0
2016-May-17 04:28N 47°16' W 002°12'0 0.0
2016-May-17 03:25N 47°16' W 002°12'  

Dump ship's entire track history